Time;durP1;ratioP1;P1;durP2;ratioP2;P2;SDS_P1;SDS_P2;PMS_P1;PMS_P2;Temp;Humidity;BMP_temperature;BMP_pressure;BME280_temperature;BME280_humidity;BME280_pressure;Samples;Min_cycle;Max_cycle;Signal;HPM_P1;HPM_P2
2022/08/17 00:01:25;;;;;;;28.52;25.58;;;;;;;22.10;66.65;100855.41;5316562;28;20084;-70
2022/08/17 00:03:56;;;;;;;28.70;25.67;;;;;;;22.09;66.49;100850.25;5316949;28;20069;-72
2022/08/17 00:06:30;;;;;;;27.92;25.02;;;;;;;22.15;66.25;100849.56;5315374;28;20463;-71
2022/08/17 00:09:04;;;;;;;30.48;25.75;;;;;;;22.12;66.95;100853.41;5317026;28;20023;-70
2022/08/17 00:11:39;;;;;;;28.92;26.15;;;;;;;22.10;67.28;100846.56;5317608;27;20112;-70
2022/08/17 00:14:17;;;;;;;29.52;26.65;;;;;;;21.98;66.93;100843.41;5316248;28;20571;-70
2022/08/17 00:16:52;;;;;;;33.47;27.92;;;;;;;21.96;67.78;100840.06;5317721;28;20035;-70
2022/08/17 00:19:24;;;;;;;31.05;27.92;;;;;;;22.05;67.44;100833.75;5317204;28;20480;-72
2022/08/17 00:21:59;;;;;;;31.42;27.02;;;;;;;22.00;68.16;100828.94;5316842;28;20027;-70
2022/08/17 00:24:30;;;;;;;32.10;29.13;;;;;;;21.95;68.29;100827.75;5317052;28;20110;-70
2022/08/17 00:27:02;;;;;;;32.55;29.38;;;;;;;21.97;68.53;100823.94;5317459;27;20582;-70
2022/08/17 00:29:33;;;;;;;32.23;28.83;;;;;;;21.86;69.22;100825.09;5317331;28;20028;-70
2022/08/17 00:32:05;;;;;;;30.75;27.80;;;;;;;21.86;69.72;100824.28;5317242;28;20488;-71
2022/08/17 00:34:37;;;;;;;31.58;28.45;;;;;;;21.98;69.27;100820.25;5316862;28;20027;-71
2022/08/17 00:37:08;;;;;;;33.50;29.95;;;;;;;21.91;69.65;100821.09;5316812;28;20499;-72
2022/08/17 00:39:40;;;;;;;34.78;29.88;;;;;;;21.95;69.58;100812.59;5316763;28;20063;-72
2022/08/17 00:42:16;;;;;;;34.50;30.83;;;;;;;21.93;70.18;100819.94;5315660;28;20036;-72
2022/08/17 00:44:48;;;;;;;33.28;30.23;;;;;;;22.04;69.64;100820.59;5317171;27;20054;-72
2022/08/17 00:47:19;;;;;;;35.55;32.03;;;;;;;22.04;69.27;100807.25;5316828;28;20020;-72
2022/08/17 00:49:50;;;;;;;33.90;30.38;;;;;;;21.86;70.51;100813.59;5315835;28;20057;-72
2022/08/17 00:52:30;;;;;;;37.95;34.03;;;;;;;21.95;70.75;100811.75;5316544;28;20024;-72
2022/08/17 00:55:03;;;;;;;35.72;32.20;;;;;;;21.82;71.18;100814.97;5316720;28;20028;-72
2022/08/17 00:57:40;;;;;;;38.42;34.85;;;;;;;21.87;71.66;100815.28;5316604;28;20488;-70
2022/08/17 01:00:25;;;;;;;37.13;33.30;;;;;;;21.92;70.86;100823.63;5315397;28;20415;-71
2022/08/17 01:03:05;;;;;;;36.90;32.97;;;;;;;21.74;71.91;100799.75;5316682;27;20027;-71
2022/08/17 01:05:37;;;;;;;35.60;31.98;;;;;;;21.80;71.21;100804.44;5315182;28;20784;-71
2022/08/17 01:08:12;;;;;;;35.00;30.88;;;;;;;21.73;71.96;100812.25;5316379;28;20031;-71
2022/08/17 01:10:46;;;;;;;35.72;32.42;;;;;;;21.81;71.75;100805.28;5316021;28;20040;-71
2022/08/17 01:13:19;;;;;;;35.20;31.75;;;;;;;21.91;70.96;100813.09;5315335;28;20024;-72
2022/08/17 01:16:00;;;;;;;34.80;31.53;;;;;;;21.84;70.89;100811.13;5316931;28;20381;-71
2022/08/17 01:18:33;;;;;;;34.92;31.50;;;;;;;21.78;71.34;100794.94;5315896;28;20433;-72
2022/08/17 01:21:16;;;;;;;34.33;31.10;;;;;;;21.95;70.37;100795.78;5315715;28;20554;-71
2022/08/17 01:23:47;;;;;;;36.55;31.10;;;;;;;21.73;72.08;100790.91;5314924;28;20027;-71
2022/08/17 01:26:19;;;;;;;34.73;31.37;;;;;;;21.75;71.79;100786.25;5316256;28;20030;-71
2022/08/17 01:28:52;;;;;;;36.42;32.97;;;;;;;21.73;71.90;100787.44;5316399;28;20024;-71
2022/08/17 01:31:29;;;;;;;34.88;31.40;;;;;;;21.78;72.04;100792.25;5315585;28;20544;-71
2022/08/17 01:34:05;;;;;;;33.70;30.77;;;;;;;21.66;72.53;100787.25;5316337;28;20020;-71
2022/08/17 01:36:38;;;;;;;33.47;30.48;;;;;;;21.62;73.21;100785.94;5314952;28;20024;-72
2022/08/17 01:39:35;;;;;;;40.25;30.67;;;;;;;21.83;71.16;100777.47;5316022;28;20042;-72
2022/08/17 01:42:12;;;;;;;31.25;28.30;;;;;;;21.61;72.80;100784.25;5305904;28;20096;-72
2022/08/17 01:44:43;;;;;;;32.40;29.33;;;;;;;21.57;72.87;100783.78;5315178;28;20034;-72
2022/08/17 01:47:14;;;;;;;30.38;27.30;;;;;;;21.64;73.21;100781.28;5315685;28;20028;-71
2022/08/17 01:49:46;;;;;;;32.97;29.33;;;;;;;21.61;72.89;100784.25;5296401;28;20024;-72
2022/08/17 01:52:18;;;;;;;32.37;29.33;;;;;;;21.57;73.07;100774.94;5315654;28;20035;-72
2022/08/17 01:54:51;;;;;;;32.03;28.95;;;;;;;21.65;73.14;100785.59;5315978;28;20110;-72
2022/08/17 01:57:22;;;;;;;32.73;29.53;;;;;;;21.51;73.52;100769.28;5315818;28;20022;-71
2022/08/17 01:59:54;;;;;;;33.67;30.27;;;;;;;21.47;73.71;100769.81;5316205;28;20024;-72
2022/08/17 02:02:25;;;;;;;34.03;30.55;;;;;;;21.51;73.49;100774.63;5314932;28;20092;-73
2022/08/17 02:04:57;;;;;;;32.03;29.00;;;;;;;21.42;73.92;100772.94;5314308;28;20024;-71
2022/08/17 02:07:29;;;;;;;32.40;28.88;;;;;;;21.52;73.58;100770.94;5313538;28;20024;-71
2022/08/17 02:10:00;;;;;;;31.13;27.63;;;;;;;21.47;74.00;100772.47;5315544;28;20059;-72
2022/08/17 02:12:31;;;;;;;32.70;29.25;;;;;;;21.48;73.55;100769.63;5314880;28;20078;-72
2022/08/17 02:15:05;;;;;;;33.95;27.33;;;;;;;21.44;74.85;100772.78;5315359;28;20313;-71
2022/08/17 02:17:39;;;;;;;39.78;30.42;;;;;;;21.33;74.55;100761.44;5313134;28;20042;-70
2022/08/17 02:20:10;;;;;;;;;;;;;;;21.78;70.78;100769.13;5314269;28;20058;-70
2022/08/17 02:22:45;;;;;;;31.50;28.60;;;;;;;21.39;74.56;100767.94;5314857;28;19951;-71
2022/08/17 02:25:18;;;;;;;32.37;28.93;;;;;;;21.27;75.18;100773.63;5314835;28;20629;-72
2022/08/17 02:27:50;;;;;;;31.50;28.20;;;;;;;21.24;74.89;100760.59;5315372;27;20059;-72
2022/08/17 02:30:21;;;;;;;34.23;30.73;;;;;;;21.22;75.43;100775.94;5314247;28;20078;-71
2022/08/17 02:32:53;;;;;;;33.30;29.83;;;;;;;21.15;75.49;100769.59;5313980;28;20032;-70
2022/08/17 02:35:24;;;;;;;34.70;30.27;;;;;;;21.15;75.65;100765.09;5313457;28;20088;-71
2022/08/17 02:37:56;;;;;;;34.57;31.17;;;;;;;21.08;76.51;100761.44;5315076;28;20023;-70
2022/08/17 02:40:28;;;;;;;35.70;32.13;;;;;;;21.15;75.36;100743.78;5314540;28;20045;-70
2022/08/17 02:42:59;;;;;;;35.57;32.33;;;;;;;21.02;76.94;100764.75;5313289;28;20027;-72
2022/08/17 02:45:30;;;;;;;38.47;34.73;;;;;;;21.02;77.31;100759.41;5314481;28;20035;-72
2022/08/17 02:48:02;;;;;;;40.37;36.80;;;;;;;20.99;77.71;100752.59;5314304;28;20092;-72
2022/08/17 02:50:34;;;;;;;40.03;36.37;;;;;;;20.85;78.10;100758.50;5313283;28;20545;-72
2022/08/17 02:53:05;;;;;;;41.47;37.23;;;;;;;20.93;78.01;100750.53;5314249;28;20056;-70
2022/08/17 02:55:39;;;;;;;40.53;36.87;;;;;;;21.09;77.12;100754.25;5314378;28;20480;-70
2022/08/17 02:58:12;;;;;;;39.53;35.50;;;;;;;20.96;77.85;100744.09;5313241;28;20030;-71
2022/08/17 03:00:47;;;;;;;37.30;33.90;;;;;;;21.05;77.38;100752.94;5313701;28;20023;-71
2022/08/17 03:03:18;;;;;;;39.57;35.77;;;;;;;21.04;77.15;100746.78;5314031;28;20030;-71
2022/08/17 03:05:52;;;;;;;39.70;36.10;;;;;;;20.82;78.82;100742.88;5313340;28;20467;-71
2022/08/17 03:08:24;;;;;;;;;;;;;;;21.31;74.17;100741.31;5313230;28;20046;-71
2022/08/17 03:10:56;;;;;;;39.30;35.63;;;;;;;20.82;78.77;100741.06;5313520;28;19919;-71
2022/08/17 03:13:29;;;;;;;39.07;35.40;;;;;;;20.74;79.86;100736.53;5314391;28;20054;-71
2022/08/17 03:16:00;;;;;;;39.87;36.13;;;;;;;20.71;79.74;100734.19;5313988;28;20027;-71
2022/08/17 03:18:32;;;;;;;41.27;37.20;;;;;;;20.70;80.26;100739.69;5313780;28;20187;-73
2022/08/17 03:21:03;;;;;;;41.87;37.67;;;;;;;20.75;79.59;100727.53;5312062;28;20035;-71
2022/08/17 03:23:40;;;;;;;41.27;37.23;;;;;;;20.76;79.99;100734.56;5313631;28;20023;-72
2022/08/17 03:26:11;;;;;;;40.47;36.50;;;;;;;20.59;81.19;100738.16;5314227;28;20034;-72
2022/08/17 03:28:42;;;;;;;41.57;37.33;;;;;;;20.66;80.39;100733.84;5311788;28;20499;-71
2022/08/17 03:31:14;;;;;;;41.53;37.73;;;;;;;20.65;81.02;100748.13;5312325;28;20024;-71
2022/08/17 03:33:45;;;;;;;43.03;38.60;;;;;;;20.58;81.14;100745.28;5313900;28;20027;-71
2022/08/17 03:36:16;;;;;;;41.50;37.33;;;;;;;20.48;81.74;100742.78;5313241;28;20031;-71
2022/08/17 03:38:48;;;;;;;39.70;36.17;;;;;;;20.46;81.63;100739.44;5313578;28;20023;-72
2022/08/17 03:41:19;;;;;;;41.30;37.13;;;;;;;20.60;81.16;100750.44;5313558;28;20028;-72
2022/08/17 03:43:50;;;;;;;40.10;36.30;;;;;;;20.64;80.85;100739.34;5314165;28;20031;-72
2022/08/17 03:57:42;;;;;;;40.83;37.00;;;;;;;20.48;82.65;100761.38;5292084;28;20036;-71
2022/08/17 04:00:14;;;;;;;42.63;38.30;;;;;;;20.52;81.84;100753.94;5292405;28;20025;-70
2022/08/17 04:02:45;;;;;;;41.07;36.83;;;;;;;20.46;82.88;100765.19;5292202;28;20111;-72
2022/08/17 04:05:16;;;;;;;40.70;37.07;;;;;;;20.63;81.87;100771.44;5292160;28;20107;-70
2022/08/17 04:07:48;;;;;;;39.77;35.83;;;;;;;20.72;80.68;100775.78;5292442;28;20024;-71
2022/08/17 04:10:19;;;;;;;38.37;34.87;;;;;;;20.75;80.31;100782.63;5299443;28;20024;-71
2022/08/17 04:12:53;;;;;;;39.17;35.57;;;;;;;20.62;81.84;100797.19;5301643;28;20044;-70
2022/08/17 04:15:25;;;;;;;39.65;35.90;;;;;;;20.53;82.35;100804.31;5291888;28;20032;-70
2022/08/17 04:17:56;;;;;;;36.40;32.87;;;;;;;20.75;80.86;100807.38;5313923;28;20032;-70
2022/08/17 04:20:27;;;;;;;37.50;33.93;;;;;;;20.77;81.37;100816.03;5302222;28;20488;-72
2022/08/17 04:23:08;;;;;;;37.10;33.60;;;;;;;20.73;83.14;100808.53;5292792;28;20035;-71
2022/08/17 04:25:47;;;;;;;36.07;32.73;;;;;;;20.76;82.24;100792.25;5292577;28;20024;-71
2022/08/17 04:28:18;;;;;;;39.07;35.20;;;;;;;20.65;83.74;100798.69;5297846;28;20034;-72
2022/08/17 04:30:50;;;;;;;39.07;35.60;;;;;;;20.67;83.93;100810.00;5299067;28;20028;-70
2022/08/17 04:33:24;;;;;;;37.27;33.43;;;;;;;20.82;82.77;100822.72;5310484;28;20031;-70
2022/08/17 04:35:58;;;;;;;37.50;33.70;;;;;;;20.75;83.60;100825.19;5306870;28;20032;-70
2022/08/17 04:38:33;;;;;;;36.53;33.30;;;;;;;20.83;83.07;100853.66;5302806;28;20032;-72
2022/08/17 04:43:57;;;;;;;39.73;35.80;;;;;;;20.72;84.67;100855.59;5301242;28;20469;-71
2022/08/17 04:46:32;;;;;;;39.27;35.37;;;;;;;20.72;85.02;100854.78;5315423;28;20055;-71
2022/08/17 04:49:06;;;;;;;36.10;32.63;;;;;;;20.85;83.76;100851.66;5315031;28;20221;-71
2022/08/17 04:51:41;;;;;;;36.03;32.73;;;;;;;20.70;85.68;100857.59;5315948;28;20024;-72
2022/08/17 04:54:16;;;;;;;37.00;33.60;;;;;;;20.81;84.90;100848.50;5296248;28;20032;-72
2022/08/17 04:56:48;;;;;;;42.37;35.13;;;;;;;20.60;85.97;100838.25;5313724;28;20172;-72
2022/08/17 04:59:21;;;;;;;36.43;32.50;;;;;;;20.82;84.74;100849.34;5316476;27;20032;-72
2022/08/17 05:01:53;;;;;;;35.67;32.05;;;;;;;20.77;85.42;100825.88;5316196;28;20437;-72
2022/08/17 05:04:25;;;;;;;36.73;33.27;;;;;;;20.80;85.09;100831.69;5316004;28;20019;-72
2022/08/17 05:06:57;;;;;;;36.00;32.43;;;;;;;20.75;85.69;100841.16;5315990;27;20031;-72
2022/08/17 05:09:28;;;;;;;34.07;30.90;;;;;;;20.80;85.38;100838.84;5316053;28;20012;-71
2022/08/17 05:12:01;;;;;;;34.97;31.83;;;;;;;20.64;86.23;100811.19;5316571;28;20032;-72
2022/08/17 05:14:32;;;;;;;35.80;32.30;;;;;;;20.71;86.60;100816.69;5316229;28;20476;-72
2022/08/17 05:17:03;;;;;;;36.10;32.63;;;;;;;20.67;86.80;100820.66;5315447;28;20077;-72
2022/08/17 05:19:35;;;;;;;34.27;30.93;;;;;;;20.73;87.01;100824.50;5315442;28;20080;-72
2022/08/17 05:22:06;;;;;;;34.07;30.10;;;;;;;20.86;85.78;100837.34;5316282;28;20032;-71
2022/08/17 05:24:38;;;;;;;34.43;31.03;;;;;;;20.77;87.32;100837.31;5316449;28;20031;-71
2022/08/17 05:27:09;;;;;;;34.40;31.20;;;;;;;20.80;85.97;100820.22;5314668;28;20036;-71
2022/08/17 05:29:41;;;;;;;34.60;31.33;;;;;;;20.81;87.19;100832.53;5316414;28;20129;-72
2022/08/17 05:32:12;;;;;;;36.03;32.83;;;;;;;20.81;87.73;100821.88;5315779;28;20036;-71
2022/08/17 05:34:44;;;;;;;34.87;31.50;;;;;;;20.86;87.71;100829.38;5314885;28;20111;-71
2022/08/17 05:37:15;;;;;;;34.73;31.47;;;;;;;20.87;88.27;100825.72;5314412;28;20282;-71
2022/08/17 05:39:46;;;;;;;34.53;31.03;;;;;;;20.88;87.96;100822.06;5316154;28;20415;-71
2022/08/17 05:42:18;;;;;;;33.83;30.43;;;;;;;21.01;86.40;100822.50;5315848;28;20484;-71
2022/08/17 05:44:49;;;;;;;34.20;30.57;;;;;;;20.83;87.70;100814.56;5315818;28;20402;-72
2022/08/17 05:47:23;;;;;;;33.57;29.90;;;;;;;20.92;87.63;100818.94;5315554;28;20425;-72
2022/08/17 05:49:55;;;;;;;34.08;30.52;;;;;;;21.05;86.36;100820.31;5314920;28;20400;-72
2022/08/17 05:52:32;;;;;;;34.33;31.23;;;;;;;21.00;87.40;100820.81;5314338;28;20058;-72
2022/08/17 05:55:10;;;;;;;32.83;29.57;;;;;;;21.14;86.21;100827.34;5315661;28;20548;-72
2022/08/17 05:57:58;;;;;;;34.23;30.70;;;;;;;21.06;87.70;100818.50;5315545;28;20034;-71
2022/08/17 06:00:41;;;;;;;32.33;29.10;;;;;;;21.17;86.52;100825.34;5315235;28;20063;-71
2022/08/17 06:03:26;;;;;;;30.97;28.23;;;;;;;21.19;85.77;100834.81;5314499;28;20032;-72
2022/08/17 06:06:22;;;;;;;30.77;27.48;;;;;;;21.31;85.21;100831.88;5314794;28;20063;-72
2022/08/17 06:09:06;;;;;;;33.77;30.47;;;;;;;21.30;91.43;100828.38;5315402;28;20032;-73
2022/08/17 06:11:40;;;;;;;29.77;27.17;;;;;;;21.26;92.84;100833.19;5314735;28;20035;-74
2022/08/17 06:14:43;;;;;;;29.98;26.80;;;;;;;21.25;96.55;100831.53;5311345;28;20027;-70
2022/08/17 06:17:19;;;;;;;27.00;24.48;;;;;;;21.34;97.00;100831.53;5303086;28;20020;-72
2022/08/17 06:19:56;;;;;;;25.67;23.37;;;;;;;21.26;97.64;100838.50;5303970;28;20028;-70
2022/08/17 06:22:43;;;;;;;25.10;22.53;;;;;;;21.20;95.62;100847.16;5304597;28;20488;-70
2022/08/17 06:25:32;;;;;;;26.17;23.77;;;;;;;21.17;95.83;100854.63;5302866;28;20024;-71
2022/08/17 06:28:08;;;;;;;25.60;23.10;;;;;;;21.21;95.05;100863.94;5304908;28;20152;-71
2022/08/17 06:30:48;;;;;;;24.52;21.42;;;;;;;21.20;95.03;100859.63;5303292;28;20024;-71
2022/08/17 06:33:29;;;;;;;25.53;23.13;;;;;;;21.28;95.74;100865.81;5294972;28;20076;-72
2022/08/17 06:36:06;;;;;;;25.37;22.83;;;;;;;21.24;95.26;100864.47;5290995;28;20028;-72
2022/08/17 06:38:52;;;;;;;23.90;21.65;;;;;;;21.31;93.60;100871.81;5286487;28;20391;-71
2022/08/17 06:41:54;;;;;;;23.85;21.65;;;;;;;21.35;93.75;100870.47;5303056;28;20031;-71
2022/08/17 06:44:53;;;;;;;21.33;19.20;;;;;;;21.43;89.59;100873.19;5294750;28;20034;-71
2022/08/17 06:47:33;;;;;;;20.98;19.00;;;;;;;21.28;92.63;100871.16;5301368;28;20035;-72
2022/08/17 06:50:14;;;;;;;22.42;20.48;;;;;;;21.26;93.34;100878.47;5308483;28;20024;-72
2022/08/17 06:53:24;;;;;;;20.17;18.35;;;;;;;21.42;88.67;100886.69;5311882;28;20027;-71
2022/08/17 06:56:08;;;;;;;20.17;18.33;;;;;;;21.38;89.62;100880.84;5283857;28;20372;-72
2022/08/17 06:58:43;;;;;;;21.13;19.17;;;;;;;21.23;92.10;100893.94;5302599;28;20043;-70
2022/08/17 07:01:23;;;;;;;19.27;17.35;;;;;;;21.25;93.03;100892.78;5309196;28;20161;-71
2022/08/17 07:04:02;;;;;;;20.38;18.33;;;;;;;21.21;91.41;100888.78;5298479;28;20028;-72
2022/08/17 07:06:55;;;;;;;19.15;17.27;;;;;;;21.38;90.75;100886.97;5310888;28;20857;-71
2022/08/17 07:09:34;;;;;;;20.92;18.95;;;;;;;21.43;89.22;100899.00;5299241;28;20062;-71
2022/08/17 07:12:15;;;;;;;20.45;18.48;;;;;;;21.30;90.15;100899.44;5308343;28;20032;-71
2022/08/17 07:15:03;;;;;;;18.20;16.50;;;;;;;21.43;88.13;100896.31;5300334;28;20437;-71
2022/08/17 07:17:34;;;;;;;20.60;18.63;;;;;;;21.36;89.59;100891.66;5303146;28;20110;-72
2022/08/17 07:20:13;;;;;;;20.95;18.95;;;;;;;21.46;90.06;100898.66;5311092;28;20395;-71
2022/08/17 07:23:08;;;;;;;19.25;17.25;;;;;;;21.45;90.96;100897.81;5308761;28;20672;-71
2022/08/17 07:25:39;;;;;;;20.15;17.77;;;;;;;21.45;88.94;100895.16;5301307;28;20044;-72
2022/08/17 07:28:11;;;;;;;19.92;18.00;;;;;;;21.40;89.75;100894.81;5292605;28;20067;-70
2022/08/17 07:30:52;;;;;;;18.83;16.98;;;;;;;21.51;86.66;100897.19;5313448;28;20066;-70
2022/08/17 07:33:27;;;;;;;18.67;16.90;;;;;;;21.48;88.87;100896.66;5312469;28;20053;-71
2022/08/17 07:35:59;;;;;;;18.02;16.45;;;;;;;21.45;89.43;100895.16;5308609;28;20028;-71
2022/08/17 07:38:34;;;;;;;19.92;17.88;;;;;;;21.48;90.04;100904.66;5292050;28;20071;-70
2022/08/17 07:41:09;;;;;;;20.67;17.42;;;;;;;21.47;87.18;100917.13;5305720;28;20909;-70
2022/08/17 07:43:40;;;;;;;19.60;17.70;;;;;;;21.51;93.83;100918.50;5292660;28;20026;-70
2022/08/17 07:49:11;;;;;;;19.75;17.67;;;;;;;21.70;88.04;100916.53;5297543;28;20048;-72
2022/08/17 07:51:42;;;;;;;17.88;16.38;;;;;;;21.75;89.10;100916.88;5309961;28;20058;-72
2022/08/17 07:54:13;;;;;;;19.35;17.42;;;;;;;21.73;86.94;100921.50;5307409;28;20480;-70
2022/08/17 07:57:22;;;;;;;18.77;16.90;;;;;;;21.91;86.00;100917.91;5307236;28;20074;-71
2022/08/17 07:59:59;;;;;;;18.10;16.30;;;;;;;21.93;86.39;100921.25;5268798;28;20044;-71
2022/08/17 08:02:37;;;;;;;19.40;17.50;;;;;;;21.97;85.19;100921.75;5309058;28;20472;-70
2022/08/17 08:05:25;;;;;;;19.80;17.23;;;;;;;22.05;84.03;100920.91;5291362;28;20024;-71
2022/08/17 08:08:04;;;;;;;19.70;17.70;;;;;;;22.07;82.41;100922.41;5296086;28;20039;-71
2022/08/17 08:10:42;;;;;;;18.77;16.88;;;;;;;21.96;83.58;100917.41;5309011;28;20048;-70
2022/08/17 08:13:19;;;;;;;19.70;17.77;;;;;;;22.09;81.97;100919.59;5291449;28;20028;-71
2022/08/17 08:15:54;;;;;;;19.58;17.58;;;;;;;22.00;81.93;100926.75;5294777;28;20036;-70
2022/08/17 08:18:32;;;;;;;19.13;17.15;;;;;;;22.17;80.63;100921.41;5293668;28;20024;-71
2022/08/17 08:21:11;;;;;;;18.13;16.08;;;;;;;22.14;82.66;100917.25;5314320;28;20030;-72
2022/08/17 08:24:08;;;;;;;20.33;17.77;;;;;;;22.21;81.30;100915.59;5317025;28;20080;-70
2022/08/17 08:26:49;;;;;;;20.23;18.58;;;;;;;22.23;80.29;100905.59;5296105;28;20051;-69
2022/08/17 08:29:32;;;;;;;21.60;19.38;;;;;;;22.10;82.75;100899.91;5311590;28;20028;-71
2022/08/17 08:32:27;;;;;;;19.00;17.37;;;;;;;22.26;79.78;100898.22;5295496;28;20107;-71
2022/08/17 08:35:16;;;;;;;24.77;18.17;;;;;;;22.30;79.19;100899.56;5273969;28;20051;-70
2022/08/17 08:38:06;;;;;;;20.58;18.58;;;;;;;22.27;79.43;100905.25;5299951;28;20035;-69
2022/08/17 08:41:05;;;;;;;21.05;19.15;;;;;;;22.32;79.59;100902.91;5309483;28;20476;-69
2022/08/17 08:43:49;;;;;;;22.23;19.48;;;;;;;22.36;79.06;100909.53;5295513;28;20032;-71
2022/08/17 08:46:39;;;;;;;;;;;;;;;22.56;77.89;100922.53;5296019;28;20103;-71
2022/08/17 08:49:44;;;;;;;20.88;18.80;;;;;;;22.50;78.29;100933.91;5301260;28;19908;-71
2022/08/17 08:52:48;;;;;;;20.77;18.20;;;;;;;22.67;77.21;100948.88;5312090;28;20501;-71
2022/08/17 08:55:31;;;;;;;21.27;19.02;;;;;;;22.64;77.47;100946.56;5307476;28;20480;-71
2022/08/17 08:58:11;;;;;;;21.75;19.52;;;;;;;22.70;77.24;100942.38;5292586;28;20044;-71
2022/08/17 09:00:49;;;;;;;21.95;19.63;;;;;;;22.88;75.52;100942.19;5312928;27;20179;-72
2022/08/17 09:03:39;;;;;;;21.75;18.92;;;;;;;22.88;74.88;100939.50;5312876;28;20027;-72
2022/08/17 09:06:17;;;;;;;20.70;18.55;;;;;;;22.88;76.19;100938.69;5304106;28;20434;-74
2022/08/17 09:09:07;;;;;;;20.10;18.00;;;;;;;22.95;74.83;100921.78;5297520;28;20059;-73
2022/08/17 09:11:45;;;;;;;21.95;19.90;;;;;;;22.78;76.90;100930.88;5304116;28;20040;-72
2022/08/17 09:14:38;;;;;;;21.33;18.80;;;;;;;22.98;76.16;100935.78;5294178;28;20507;-73
2022/08/17 09:17:20;;;;;;;25.50;20.92;;;;;;;22.79;75.66;100943.19;5294201;28;20542;-72
2022/08/17 09:20:02;;;;;;;22.73;20.55;;;;;;;22.90;75.61;100942.00;5292617;28;20123;-71
2022/08/17 09:22:46;;;;;;;22.48;20.45;;;;;;;22.92;75.47;100943.50;5313441;28;20020;-72
2022/08/17 09:25:27;;;;;;;22.98;19.80;;;;;;;22.92;73.78;100948.00;5303311;28;20537;-71
2022/08/17 09:28:05;;;;;;;21.48;19.40;;;;;;;22.87;74.05;100958.34;5303625;28;20020;-72
2022/08/17 09:30:44;;;;;;;22.80;20.35;;;;;;;22.79;74.21;100956.56;5306451;28;20495;-71
2022/08/17 09:33:21;;;;;;;21.95;19.73;;;;;;;22.74;76.75;100961.56;5303438;28;20020;-72
2022/08/17 09:35:58;;;;;;;22.15;20.15;;;;;;;22.77;78.27;100978.09;5298335;28;20027;-70
2022/08/17 09:38:58;;;;;;;20.98;18.90;;;;;;;22.89;76.05;100980.38;5298984;28;20024;-71
2022/08/17 09:41:50;;;;;;;20.30;18.40;;;;;;;22.79;77.39;101000.09;5305137;28;20023;-71
2022/08/17 09:44:34;;;;;;;21.48;19.30;;;;;;;22.74;79.12;101022.97;5310041;28;20078;-72
2022/08/17 09:47:21;;;;;;;22.02;19.17;;;;;;;22.64;79.40;101029.31;5307463;28;20408;-71
2022/08/17 09:50:00;;;;;;;20.98;18.88;;;;;;;22.50;81.25;101037.97;5296104;28;20092;-71
2022/08/17 09:52:31;;;;;;;25.02;20.58;;;;;;;22.29;87.48;101040.09;5311476;28;20040;-71
2022/08/17 09:55:04;;;;;;;23.48;21.00;;;;;;;22.31;85.48;101040.78;5294656;28;20036;-69
2022/08/17 09:57:50;;;;;;;25.02;22.38;;;;;;;22.34;86.78;101026.28;5295949;28;20135;-70
2022/08/17 10:00:26;;;;;;;29.35;25.55;;;;;;;22.07;100.00;101022.91;5300714;28;20020;-70
2022/08/17 10:03:21;;;;;;;28.30;25.42;;;;;;;22.13;100.00;101016.94;5301891;28;20038;-71
2022/08/17 10:06:28;;;;;;;26.70;23.65;;;;;;;22.13;100.00;101008.94;5298653;28;20031;-71
2022/08/17 10:09:07;;;;;;;26.52;23.63;;;;;;;22.11;100.00;101016.25;5295620;28;20098;-71
2022/08/17 10:14:47;;;;;;;28.08;24.52;;;;;;;22.10;100.00;101019.91;5294249;28;20032;-69
2022/08/17 10:17:39;;;;;;;33.90;28.30;;;;;;;21.97;100.00;101013.25;5291161;28;20012;-70
2022/08/17 10:20:21;;;;;;;30.50;27.52;;;;;;;21.86;100.00;101008.22;5298177;28;20027;-70
2022/08/17 10:28:51;;;;;;;32.47;29.13;;;;;;;21.69;100.00;101016.16;5295964;28;20042;-71
2022/08/17 10:31:41;;;;;;;29.92;26.85;;;;;;;21.73;100.00;101020.13;5314449;28;20387;-72
2022/08/17 10:34:18;;;;;;;28.17;25.42;;;;;;;21.63;100.00;101012.28;5296646;28;20111;-70
2022/08/17 10:36:56;;;;;;;28.90;25.90;;;;;;;21.74;100.00;101007.66;5298760;28;20027;-70
2022/08/17 10:39:29;;;;;;;31.10;27.92;;;;;;;21.79;100.00;101005.38;5291227;28;20138;-70
2022/08/17 10:42:14;;;;;;;31.08;28.13;;;;;;;21.73;100.00;101000.66;5308257;28;20065;-70
2022/08/17 10:44:55;;;;;;;31.35;28.20;;;;;;;21.57;100.00;100980.13;5310405;28;20177;-71
2022/08/17 10:47:52;;;;;;;31.85;28.73;;;;;;;21.80;100.00;100991.03;5290811;28;20028;-70
2022/08/17 10:50:51;;;;;;;30.67;27.77;;;;;;;21.83;100.00;100985.38;5300359;28;20032;-71
2022/08/17 10:53:31;;;;;;;30.17;27.48;;;;;;;21.85;100.00;100971.91;5309559;28;20057;-70
2022/08/17 10:56:12;;;;;;;29.77;27.08;;;;;;;21.76;100.00;100969.16;5302562;28;20034;-71
2022/08/17 10:58:52;;;;;;;30.38;27.70;;;;;;;21.79;100.00;100959.19;5307925;28;20111;-72
2022/08/17 11:01:33;;;;;;;27.70;25.17;;;;;;;21.69;100.00;100962.84;5298567;28;20047;-71
2022/08/17 11:04:28;;;;;;;28.45;25.65;;;;;;;21.59;100.00;100967.47;5294475;28;20123;-70
2022/08/17 11:07:29;;;;;;;29.02;26.52;;;;;;;21.73;100.00;100979.34;5296310;28;20031;-71
2022/08/17 11:10:15;;;;;;;27.70;25.30;;;;;;;21.70;100.00;100969.81;5306245;28;20035;-72
2022/08/17 11:13:02;;;;;;;29.00;25.98;;;;;;;21.64;100.00;100970.50;5291894;28;20054;-71
2022/08/17 11:15:45;;;;;;;29.75;26.83;;;;;;;21.47;100.00;100981.06;5291706;28;20481;-71
2022/08/17 11:18:49;;;;;;;33.30;25.48;;;;;;;21.66;100.00;100984.47;5306628;28;20041;-72
2022/08/17 11:21:37;;;;;;;28.55;25.92;;;;;;;21.54;100.00;100986.59;5307909;28;20020;-71
2022/08/17 11:24:18;;;;;;;28.33;25.52;;;;;;;21.56;100.00;100994.41;5312820;28;20030;-71
2022/08/17 11:27:19;;;;;;;27.75;25.20;;;;;;;21.60;100.00;100990.44;5305275;28;20020;-71
2022/08/17 11:29:52;;;;;;;28.88;26.17;;;;;;;21.34;100.00;101004.69;5304286;28;20031;-71
2022/08/17 11:32:38;;;;;;;30.80;27.60;;;;;;;21.51;100.00;101013.56;5310408;28;20031;-72
2022/08/17 11:35:12;;;;;;;28.08;25.38;;;;;;;21.51;100.00;101017.06;5293292;28;20024;-72
2022/08/17 11:37:48;;;;;;;32.22;28.85;;;;;;;21.35;100.00;101019.66;5292004;28;20354;-72
2022/08/17 11:40:28;;;;;;;29.20;26.38;;;;;;;21.52;100.00;101029.38;5304035;28;20107;-72
2022/08/17 11:43:40;;;;;;;30.13;27.33;;;;;;;21.65;100.00;101030.78;5291864;28;20036;-72
2022/08/17 11:51:32;;;;;;;31.15;27.95;;;;;;;21.60;100.00;101030.44;5300116;28;20093;-73
2022/08/17 11:52:41;;;;;;;28.83;26.10;;;;;;;21.66;100.00;101040.44;5312308;28;20047;-73
2022/08/17 11:55:27;;;;;;;28.55;26.08;;;;;;;21.71;100.00;101046.09;5308193;28;20024;-73
2022/08/17 11:58:24;;;;;;;30.42;27.83;;;;;;;21.60;100.00;101041.09;5294414;28;20028;-72
2022/08/17 12:01:00;;;;;;;29.55;26.85;;;;;;;21.70;100.00;101048.94;5302694;28;20042;-72
2022/08/17 12:03:38;;;;;;;30.88;28.27;;;;;;;21.60;100.00;101054.41;5305798;28;20036;-72
2022/08/17 12:06:32;;;;;;;30.48;27.58;;;;;;;21.76;100.00;101058.97;5299367;28;20031;-71
2022/08/17 12:09:28;;;;;;;30.85;27.92;;;;;;;21.62;100.00;101045.28;5312164;28;20715;-71
2022/08/17 12:12:34;;;;;;;31.42;28.52;;;;;;;21.71;100.00;101066.63;5316119;28;20496;-71
2022/08/17 12:15:06;;;;;;;32.25;29.27;;;;;;;21.45;100.00;101063.00;5265128;28;20033;-72
2022/08/17 12:17:38;;;;;;;31.10;28.35;;;;;;;21.21;100.00;101051.22;5292199;28;20043;-72
2022/08/17 12:20:20;;;;;;;30.75;27.60;;;;;;;21.52;100.00;101069.34;5316731;28;20085;-72
2022/08/17 12:23:07;;;;;;;30.90;27.92;;;;;;;21.40;100.00;101071.47;5313307;28;20475;-72
2022/08/17 12:25:46;;;;;;;31.50;28.77;;;;;;;21.17;100.00;101052.53;5305222;28;20484;-71
2022/08/17 12:28:24;;;;;;;31.13;28.30;;;;;;;21.26;100.00;101075.53;5292704;28;20039;-71
2022/08/17 12:31:03;;;;;;;33.20;30.05;;;;;;;21.23;100.00;101067.03;5312745;28;20027;-71